sensor_id;sensor_type;location;lat;lon;timestamp;P1;durP1;ratioP1;P2;durP2;ratioP2
13040;SDS011;6587;42.728;23.288;2022-07-15T00:01:34;2.70;;;2.50;;
13040;SDS011;6587;42.728;23.288;2022-07-15T00:04:01;3.77;;;2.97;;
13040;SDS011;6587;42.728;23.288;2022-07-15T00:06:28;5.27;;;2.87;;
13040;SDS011;6587;42.728;23.288;2022-07-15T00:08:59;3.33;;;2.80;;
13040;SDS011;6587;42.728;23.288;2022-07-15T00:11:33;5.27;;;2.90;;
13040;SDS011;6587;42.728;23.288;2022-07-15T00:14:14;8.20;;;3.03;;
13040;SDS011;6587;42.728;23.288;2022-07-15T00:16:41;7.40;;;2.70;;
13040;SDS011;6587;42.728;23.288;2022-07-15T00:19:10;4.43;;;2.57;;
13040;SDS011;6587;42.728;23.288;2022-07-15T00:22:04;5.27;;;2.70;;
13040;SDS011;6587;42.728;23.288;2022-07-15T00:24:49;4.80;;;2.67;;
13040;SDS011;6587;42.728;23.288;2022-07-15T00:27:48;2.67;;;2.47;;
13040;SDS011;6587;42.728;23.288;2022-07-15T00:30:28;3.17;;;2.77;;
13040;SDS011;6587;42.728;23.288;2022-07-15T00:32:56;3.40;;;2.60;;
13040;SDS011;6587;42.728;23.288;2022-07-15T00:35:25;4.67;;;2.37;;
13040;SDS011;6587;42.728;23.288;2022-07-15T00:37:52;3.30;;;2.83;;
13040;SDS011;6587;42.728;23.288;2022-07-15T00:40:21;4.40;;;3.10;;
13040;SDS011;6587;42.728;23.288;2022-07-15T00:42:48;3.43;;;2.57;;
13040;SDS011;6587;42.728;23.288;2022-07-15T00:45:17;4.03;;;2.93;;
13040;SDS011;6587;42.728;23.288;2022-07-15T00:47:46;5.90;;;3.00;;
13040;SDS011;6587;42.728;23.288;2022-07-15T00:50:18;3.17;;;2.87;;
13040;SDS011;6587;42.728;23.288;2022-07-15T00:53:00;4.67;;;2.70;;
13040;SDS011;6587;42.728;23.288;2022-07-15T00:55:56;4.50;;;2.87;;
13040;SDS011;6587;42.728;23.288;2022-07-15T00:58:40;2.73;;;2.53;;
13040;SDS011;6587;42.728;23.288;2022-07-15T01:01:09;3.73;;;2.40;;
13040;SDS011;6587;42.728;23.288;2022-07-15T01:03:37;4.10;;;2.47;;
13040;SDS011;6587;42.728;23.288;2022-07-15T01:06:04;4.10;;;2.70;;
13040;SDS011;6587;42.728;23.288;2022-07-15T01:08:32;4.97;;;3.07;;
13040;SDS011;6587;42.728;23.288;2022-07-15T01:11:01;6.33;;;3.20;;
13040;SDS011;6587;42.728;23.288;2022-07-15T01:13:28;10.37;;;3.10;;
13040;SDS011;6587;42.728;23.288;2022-07-15T01:15:56;9.97;;;4.23;;
13040;SDS011;6587;42.728;23.288;2022-07-15T01:18:24;5.50;;;3.70;;
13040;SDS011;6587;42.728;23.288;2022-07-15T01:20:52;7.70;;;4.30;;
13040;SDS011;6587;42.728;23.288;2022-07-15T01:23:19;5.30;;;4.13;;
13040;SDS011;6587;42.728;23.288;2022-07-15T01:26:07;9.50;;;4.70;;
13040;SDS011;6587;42.728;23.288;2022-07-15T01:28:34;8.20;;;4.80;;
13040;SDS011;6587;42.728;23.288;2022-07-15T01:31:01;10.50;;;5.40;;
13040;SDS011;6587;42.728;23.288;2022-07-15T01:33:31;7.47;;;4.40;;
13040;SDS011;6587;42.728;23.288;2022-07-15T01:36:01;9.37;;;5.37;;
13040;SDS011;6587;42.728;23.288;2022-07-15T01:38:31;8.57;;;4.80;;
13040;SDS011;6587;42.728;23.288;2022-07-15T01:41:02;9.07;;;5.00;;
13040;SDS011;6587;42.728;23.288;2022-07-15T01:43:30;7.43;;;5.07;;
13040;SDS011;6587;42.728;23.288;2022-07-15T01:45:58;8.20;;;4.90;;
13040;SDS011;6587;42.728;23.288;2022-07-15T01:48:32;10.03;;;4.40;;
13040;SDS011;6587;42.728;23.288;2022-07-15T01:51:37;6.03;;;4.23;;
13040;SDS011;6587;42.728;23.288;2022-07-15T01:54:04;6.97;;;4.30;;
13040;SDS011;6587;42.728;23.288;2022-07-15T01:56:31;6.30;;;4.23;;
13040;SDS011;6587;42.728;23.288;2022-07-15T01:58:58;6.93;;;3.80;;
13040;SDS011;6587;42.728;23.288;2022-07-15T02:01:25;10.10;;;3.77;;
13040;SDS011;6587;42.728;23.288;2022-07-15T02:03:52;7.13;;;3.50;;
13040;SDS011;6587;42.728;23.288;2022-07-15T02:06:19;4.80;;;3.30;;
13040;SDS011;6587;42.728;23.288;2022-07-15T02:08:49;6.40;;;4.03;;
13040;SDS011;6587;42.728;23.288;2022-07-15T02:11:19;8.97;;;3.60;;
13040;SDS011;6587;42.728;23.288;2022-07-15T02:13:48;4.23;;;3.20;;
13040;SDS011;6587;42.728;23.288;2022-07-15T02:16:16;3.83;;;3.40;;
13040;SDS011;6587;42.728;23.288;2022-07-15T02:18:44;4.17;;;3.60;;
13040;SDS011;6587;42.728;23.288;2022-07-15T02:21:10;6.63;;;3.57;;
13040;SDS011;6587;42.728;23.288;2022-07-15T02:23:37;6.03;;;3.50;;
13040;SDS011;6587;42.728;23.288;2022-07-15T02:26:07;15.50;;;3.63;;
13040;SDS011;6587;42.728;23.288;2022-07-15T02:28:34;5.60;;;3.80;;
13040;SDS011;6587;42.728;23.288;2022-07-15T02:31:02;6.27;;;3.30;;
13040;SDS011;6587;42.728;23.288;2022-07-15T02:33:33;4.57;;;3.13;;
13040;SDS011;6587;42.728;23.288;2022-07-15T02:36:07;4.20;;;3.17;;
13040;SDS011;6587;42.728;23.288;2022-07-15T02:38:34;4.57;;;3.27;;
13040;SDS011;6587;42.728;23.288;2022-07-15T02:41:01;4.83;;;3.53;;
13040;SDS011;6587;42.728;23.288;2022-07-15T02:43:31;5.93;;;3.63;;
13040;SDS011;6587;42.728;23.288;2022-07-15T02:45:59;4.70;;;2.90;;
13040;SDS011;6587;42.728;23.288;2022-07-15T02:48:29;4.87;;;3.10;;
13040;SDS011;6587;42.728;23.288;2022-07-15T02:50:59;4.63;;;3.53;;
13040;SDS011;6587;42.728;23.288;2022-07-15T02:53:27;5.53;;;3.33;;
13040;SDS011;6587;42.728;23.288;2022-07-15T02:55:58;6.67;;;3.30;;
13040;SDS011;6587;42.728;23.288;2022-07-15T02:58:26;3.80;;;3.40;;
13040;SDS011;6587;42.728;23.288;2022-07-15T03:00:57;6.37;;;3.50;;
13040;SDS011;6587;42.728;23.288;2022-07-15T03:03:26;3.67;;;3.13;;
13040;SDS011;6587;42.728;23.288;2022-07-15T03:05:55;7.80;;;3.60;;
13040;SDS011;6587;42.728;23.288;2022-07-15T03:08:23;5.93;;;3.73;;
13040;SDS011;6587;42.728;23.288;2022-07-15T03:10:51;4.43;;;3.07;;
13040;SDS011;6587;42.728;23.288;2022-07-15T03:13:18;4.83;;;3.27;;
13040;SDS011;6587;42.728;23.288;2022-07-15T03:15:45;12.90;;;4.37;;
13040;SDS011;6587;42.728;23.288;2022-07-15T03:18:14;5.37;;;4.00;;
13040;SDS011;6587;42.728;23.288;2022-07-15T03:20:41;6.93;;;3.57;;
13040;SDS011;6587;42.728;23.288;2022-07-15T03:23:11;5.43;;;3.67;;
13040;SDS011;6587;42.728;23.288;2022-07-15T03:25:38;6.00;;;3.67;;
13040;SDS011;6587;42.728;23.288;2022-07-15T03:28:09;4.67;;;3.10;;
13040;SDS011;6587;42.728;23.288;2022-07-15T03:30:38;4.17;;;3.77;;
13040;SDS011;6587;42.728;23.288;2022-07-15T03:33:05;12.50;;;4.33;;
13040;SDS011;6587;42.728;23.288;2022-07-15T03:35:33;5.97;;;3.43;;
13040;SDS011;6587;42.728;23.288;2022-07-15T03:38:01;5.47;;;3.17;;
13040;SDS011;6587;42.728;23.288;2022-07-15T03:40:28;6.23;;;3.90;;
13040;SDS011;6587;42.728;23.288;2022-07-15T03:42:55;6.13;;;3.60;;
13040;SDS011;6587;42.728;23.288;2022-07-15T03:45:23;6.40;;;3.80;;
13040;SDS011;6587;42.728;23.288;2022-07-15T03:47:51;9.20;;;3.37;;
13040;SDS011;6587;42.728;23.288;2022-07-15T03:50:18;5.00;;;3.80;;
13040;SDS011;6587;42.728;23.288;2022-07-15T03:52:46;5.13;;;4.17;;
13040;SDS011;6587;42.728;23.288;2022-07-15T03:55:13;5.67;;;4.00;;
13040;SDS011;6587;42.728;23.288;2022-07-15T03:57:40;6.10;;;4.00;;
13040;SDS011;6587;42.728;23.288;2022-07-15T04:00:09;5.90;;;3.93;;
13040;SDS011;6587;42.728;23.288;2022-07-15T04:02:43;6.13;;;3.60;;
13040;SDS011;6587;42.728;23.288;2022-07-15T04:05:10;13.60;;;3.90;;
13040;SDS011;6587;42.728;23.288;2022-07-15T04:07:37;7.43;;;4.00;;
13040;SDS011;6587;42.728;23.288;2022-07-15T04:10:06;6.47;;;3.63;;
13040;SDS011;6587;42.728;23.288;2022-07-15T04:12:34;13.07;;;4.10;;
13040;SDS011;6587;42.728;23.288;2022-07-15T04:15:01;9.60;;;3.90;;
13040;SDS011;6587;42.728;23.288;2022-07-15T04:17:31;8.77;;;5.93;;
13040;SDS011;6587;42.728;23.288;2022-07-15T04:19:58;5.67;;;3.70;;
13040;SDS011;6587;42.728;23.288;2022-07-15T04:22:25;5.10;;;4.10;;
13040;SDS011;6587;42.728;23.288;2022-07-15T04:24:52;4.13;;;3.60;;
13040;SDS011;6587;42.728;23.288;2022-07-15T04:27:21;8.47;;;4.23;;
13040;SDS011;6587;42.728;23.288;2022-07-15T04:29:50;8.30;;;4.20;;
13040;SDS011;6587;42.728;23.288;2022-07-15T04:32:17;5.67;;;3.90;;
13040;SDS011;6587;42.728;23.288;2022-07-15T04:34:48;7.67;;;3.90;;
13040;SDS011;6587;42.728;23.288;2022-07-15T04:37:17;8.13;;;4.33;;
13040;SDS011;6587;42.728;23.288;2022-07-15T04:39:49;8.53;;;5.93;;
13040;SDS011;6587;42.728;23.288;2022-07-15T04:42:16;6.67;;;4.67;;
13040;SDS011;6587;42.728;23.288;2022-07-15T04:44:44;8.07;;;4.80;;
13040;SDS011;6587;42.728;23.288;2022-07-15T04:47:15;11.83;;;4.43;;
13040;SDS011;6587;42.728;23.288;2022-07-15T04:49:48;8.83;;;3.60;;
13040;SDS011;6587;42.728;23.288;2022-07-15T04:52:35;8.33;;;4.30;;
13040;SDS011;6587;42.728;23.288;2022-07-15T04:55:02;7.53;;;4.20;;
13040;SDS011;6587;42.728;23.288;2022-07-15T04:57:29;4.93;;;3.63;;
13040;SDS011;6587;42.728;23.288;2022-07-15T05:00:01;6.87;;;4.40;;
13040;SDS011;6587;42.728;23.288;2022-07-15T05:02:36;4.53;;;4.10;;
13040;SDS011;6587;42.728;23.288;2022-07-15T05:05:03;9.10;;;4.87;;
13040;SDS011;6587;42.728;23.288;2022-07-15T05:07:32;8.90;;;4.37;;
13040;SDS011;6587;42.728;23.288;2022-07-15T05:10:01;7.40;;;4.53;;
13040;SDS011;6587;42.728;23.288;2022-07-15T05:12:28;8.43;;;4.43;;
13040;SDS011;6587;42.728;23.288;2022-07-15T05:14:57;8.73;;;4.70;;
13040;SDS011;6587;42.728;23.288;2022-07-15T05:17:25;14.30;;;5.57;;
13040;SDS011;6587;42.728;23.288;2022-07-15T05:19:53;7.43;;;5.30;;
13040;SDS011;6587;42.728;23.288;2022-07-15T05:22:22;8.13;;;5.40;;
13040;SDS011;6587;42.728;23.288;2022-07-15T05:24:50;8.53;;;5.33;;
13040;SDS011;6587;42.728;23.288;2022-07-15T05:27:17;6.17;;;4.80;;
13040;SDS011;6587;42.728;23.288;2022-07-15T05:29:46;7.07;;;4.90;;
13040;SDS011;6587;42.728;23.288;2022-07-15T05:32:15;9.03;;;4.50;;
13040;SDS011;6587;42.728;23.288;2022-07-15T05:34:45;6.80;;;5.23;;
13040;SDS011;6587;42.728;23.288;2022-07-15T05:37:14;7.83;;;5.50;;
13040;SDS011;6587;42.728;23.288;2022-07-15T05:39:42;7.17;;;5.07;;
13040;SDS011;6587;42.728;23.288;2022-07-15T05:42:25;8.27;;;5.30;;
13040;SDS011;6587;42.728;23.288;2022-07-15T05:44:52;8.07;;;5.37;;
13040;SDS011;6587;42.728;23.288;2022-07-15T05:47:19;14.87;;;5.90;;
13040;SDS011;6587;42.728;23.288;2022-07-15T05:49:49;11.93;;;5.33;;
13040;SDS011;6587;42.728;23.288;2022-07-15T05:52:16;6.43;;;5.03;;
13040;SDS011;6587;42.728;23.288;2022-07-15T05:54:44;12.00;;;5.40;;
13040;SDS011;6587;42.728;23.288;2022-07-15T05:57:10;9.03;;;5.53;;
13040;SDS011;6587;42.728;23.288;2022-07-15T05:59:37;8.80;;;5.50;;
13040;SDS011;6587;42.728;23.288;2022-07-15T06:02:05;8.53;;;5.83;;
13040;SDS011;6587;42.728;23.288;2022-07-15T06:04:36;9.53;;;5.40;;
13040;SDS011;6587;42.728;23.288;2022-07-15T06:07:06;8.40;;;5.93;;
13040;SDS011;6587;42.728;23.288;2022-07-15T06:09:33;6.33;;;5.40;;
13040;SDS011;6587;42.728;23.288;2022-07-15T06:12:00;10.50;;;5.90;;
13040;SDS011;6587;42.728;23.288;2022-07-15T06:14:29;6.93;;;5.23;;
13040;SDS011;6587;42.728;23.288;2022-07-15T06:16:56;7.67;;;5.40;;
13040;SDS011;6587;42.728;23.288;2022-07-15T06:19:24;9.00;;;4.97;;
13040;SDS011;6587;42.728;23.288;2022-07-15T06:21:51;11.83;;;5.13;;
13040;SDS011;6587;42.728;23.288;2022-07-15T06:24:19;12.40;;;5.20;;
13040;SDS011;6587;42.728;23.288;2022-07-15T06:26:46;9.17;;;4.87;;
13040;SDS011;6587;42.728;23.288;2022-07-15T06:29:13;7.70;;;5.20;;
13040;SDS011;6587;42.728;23.288;2022-07-15T06:31:40;7.50;;;4.87;;
13040;SDS011;6587;42.728;23.288;2022-07-15T06:34:08;10.00;;;5.00;;
13040;SDS011;6587;42.728;23.288;2022-07-15T06:36:35;6.67;;;4.93;;
13040;SDS011;6587;42.728;23.288;2022-07-15T06:39:02;5.13;;;4.50;;
13040;SDS011;6587;42.728;23.288;2022-07-15T06:41:31;9.67;;;5.17;;
13040;SDS011;6587;42.728;23.288;2022-07-15T06:43:59;7.70;;;5.20;;
13040;SDS011;6587;42.728;23.288;2022-07-15T06:46:49;6.87;;;4.97;;
13040;SDS011;6587;42.728;23.288;2022-07-15T06:49:16;8.50;;;5.33;;
13040;SDS011;6587;42.728;23.288;2022-07-15T06:51:49;10.20;;;4.97;;
13040;SDS011;6587;42.728;23.288;2022-07-15T06:54:18;13.90;;;5.33;;
13040;SDS011;6587;42.728;23.288;2022-07-15T06:56:48;7.10;;;5.13;;
13040;SDS011;6587;42.728;23.288;2022-07-15T06:59:15;10.30;;;5.10;;
13040;SDS011;6587;42.728;23.288;2022-07-15T07:01:45;9.97;;;5.57;;
13040;SDS011;6587;42.728;23.288;2022-07-15T07:04:12;6.17;;;5.43;;
13040;SDS011;6587;42.728;23.288;2022-07-15T07:06:39;8.07;;;4.77;;
13040;SDS011;6587;42.728;23.288;2022-07-15T07:09:06;12.63;;;4.83;;
13040;SDS011;6587;42.728;23.288;2022-07-15T07:11:34;9.80;;;6.07;;
13040;SDS011;6587;42.728;23.288;2022-07-15T07:14:02;6.93;;;5.32;;
13040;SDS011;6587;42.728;23.288;2022-07-15T07:16:29;9.53;;;5.27;;
13040;SDS011;6587;42.728;23.288;2022-07-15T07:18:56;9.03;;;5.20;;
13040;SDS011;6587;42.728;23.288;2022-07-15T07:21:23;8.63;;;4.53;;
13040;SDS011;6587;42.728;23.288;2022-07-15T07:23:50;7.20;;;4.33;;
13040;SDS011;6587;42.728;23.288;2022-07-15T07:26:17;9.30;;;4.77;;
13040;SDS011;6587;42.728;23.288;2022-07-15T07:28:44;9.93;;;4.30;;
13040;SDS011;6587;42.728;23.288;2022-07-15T07:31:15;5.18;;;3.75;;
13040;SDS011;6587;42.728;23.288;2022-07-15T07:33:42;7.57;;;4.38;;
13040;SDS011;6587;42.728;23.288;2022-07-15T07:36:09;21.90;;;6.05;;
13040;SDS011;6587;42.728;23.288;2022-07-15T07:38:36;6.88;;;4.38;;
13040;SDS011;6587;42.728;23.288;2022-07-15T07:41:03;5.38;;;3.95;;
13040;SDS011;6587;42.728;23.288;2022-07-15T07:43:30;6.22;;;3.60;;
13040;SDS011;6587;42.728;23.288;2022-07-15T07:45:58;7.25;;;3.38;;
13040;SDS011;6587;42.728;23.288;2022-07-15T07:48:26;8.23;;;3.58;;
13040;SDS011;6587;42.728;23.288;2022-07-15T07:50:54;6.85;;;3.28;;
13040;SDS011;6587;42.728;23.288;2022-07-15T07:53:21;3.40;;;3.10;;
13040;SDS011;6587;42.728;23.288;2022-07-15T07:55:48;7.57;;;3.42;;
13040;SDS011;6587;42.728;23.288;2022-07-15T07:58:15;5.50;;;3.60;;
13040;SDS011;6587;42.728;23.288;2022-07-15T08:00:42;6.32;;;3.28;;
13040;SDS011;6587;42.728;23.288;2022-07-15T08:03:10;5.60;;;3.42;;
13040;SDS011;6587;42.728;23.288;2022-07-15T08:05:38;5.05;;;3.40;;
13040;SDS011;6587;42.728;23.288;2022-07-15T08:08:09;6.97;;;3.47;;
13040;SDS011;6587;42.728;23.288;2022-07-15T08:10:37;8.18;;;3.33;;
13040;SDS011;6587;42.728;23.288;2022-07-15T08:13:04;5.18;;;3.20;;
13040;SDS011;6587;42.728;23.288;2022-07-15T08:15:31;7.85;;;3.75;;
13040;SDS011;6587;42.728;23.288;2022-07-15T08:17:58;7.22;;;3.35;;
13040;SDS011;6587;42.728;23.288;2022-07-15T08:20:27;10.95;;;3.70;;
13040;SDS011;6587;42.728;23.288;2022-07-15T08:22:56;8.52;;;3.75;;
13040;SDS011;6587;42.728;23.288;2022-07-15T08:25:25;7.05;;;3.63;;
13040;SDS011;6587;42.728;23.288;2022-07-15T08:27:53;6.85;;;4.03;;
13040;SDS011;6587;42.728;23.288;2022-07-15T08:30:20;4.80;;;3.72;;
13040;SDS011;6587;42.728;23.288;2022-07-15T08:32:47;8.93;;;4.05;;
13040;SDS011;6587;42.728;23.288;2022-07-15T08:35:14;7.93;;;3.63;;
13040;SDS011;6587;42.728;23.288;2022-07-15T08:37:41;5.95;;;3.20;;
13040;SDS011;6587;42.728;23.288;2022-07-15T08:40:10;4.93;;;3.13;;
13040;SDS011;6587;42.728;23.288;2022-07-15T08:42:38;5.22;;;3.90;;
13040;SDS011;6587;42.728;23.288;2022-07-15T08:45:07;5.85;;;3.38;;
13040;SDS011;6587;42.728;23.288;2022-07-15T08:47:36;6.50;;;3.50;;
13040;SDS011;6587;42.728;23.288;2022-07-15T08:50:05;6.82;;;3.80;;
13040;SDS011;6587;42.728;23.288;2022-07-15T08:52:33;4.90;;;3.45;;
13040;SDS011;6587;42.728;23.288;2022-07-15T08:55:00;7.82;;;3.20;;
13040;SDS011;6587;42.728;23.288;2022-07-15T08:57:28;5.90;;;3.30;;
13040;SDS011;6587;42.728;23.288;2022-07-15T08:59:55;7.32;;;3.60;;
13040;SDS011;6587;42.728;23.288;2022-07-15T09:02:22;8.25;;;3.90;;
13040;SDS011;6587;42.728;23.288;2022-07-15T09:07:49;4.72;;;3.47;;
13040;SDS011;6587;42.728;23.288;2022-07-15T09:10:22;7.03;;;3.72;;
13040;SDS011;6587;42.728;23.288;2022-07-15T09:12:52;6.18;;;3.50;;
13040;SDS011;6587;42.728;23.288;2022-07-15T09:15:29;8.32;;;3.95;;
13040;SDS011;6587;42.728;23.288;2022-07-15T09:18:04;9.07;;;4.10;;
13040;SDS011;6587;42.728;23.288;2022-07-15T09:20:32;9.77;;;4.20;;
13040;SDS011;6587;42.728;23.288;2022-07-15T09:23:00;6.38;;;3.60;;
13040;SDS011;6587;42.728;23.288;2022-07-15T09:25:29;8.02;;;5.40;;
13040;SDS011;6587;42.728;23.288;2022-07-15T09:28:00;8.80;;;4.40;;
13040;SDS011;6587;42.728;23.288;2022-07-15T09:30:29;9.50;;;4.55;;
13040;SDS011;6587;42.728;23.288;2022-07-15T09:33:15;6.75;;;3.47;;
13040;SDS011;6587;42.728;23.288;2022-07-15T09:36:07;8.63;;;4.13;;
13040;SDS011;6587;42.728;23.288;2022-07-15T09:38:37;16.70;;;9.15;;
13040;SDS011;6587;42.728;23.288;2022-07-15T09:41:10;9.77;;;4.57;;
13040;SDS011;6587;42.728;23.288;2022-07-15T09:43:45;9.43;;;3.60;;
13040;SDS011;6587;42.728;23.288;2022-07-15T09:46:14;7.40;;;3.15;;
13040;SDS011;6587;42.728;23.288;2022-07-15T09:48:42;10.32;;;3.40;;
13040;SDS011;6587;42.728;23.288;2022-07-15T09:51:11;3.85;;;2.75;;
13040;SDS011;6587;42.728;23.288;2022-07-15T09:53:38;5.53;;;2.88;;
13040;SDS011;6587;42.728;23.288;2022-07-15T09:56:07;8.10;;;2.92;;
13040;SDS011;6587;42.728;23.288;2022-07-15T09:58:38;6.13;;;2.38;;
13040;SDS011;6587;42.728;23.288;2022-07-15T10:01:08;7.65;;;2.60;;
13040;SDS011;6587;42.728;23.288;2022-07-15T10:03:37;4.90;;;2.50;;
13040;SDS011;6587;42.728;23.288;2022-07-15T10:06:04;6.10;;;3.83;;
13040;SDS011;6587;42.728;23.288;2022-07-15T10:08:32;5.22;;;2.90;;
13040;SDS011;6587;42.728;23.288;2022-07-15T10:11:00;5.60;;;2.60;;
13040;SDS011;6587;42.728;23.288;2022-07-15T10:16:38;5.78;;;2.35;;
13040;SDS011;6587;42.728;23.288;2022-07-15T10:19:23;3.35;;;2.97;;
13040;SDS011;6587;42.728;23.288;2022-07-15T10:22:00;10.13;;;2.90;;
13040;SDS011;6587;42.728;23.288;2022-07-15T10:24:38;5.20;;;3.00;;
13040;SDS011;6587;42.728;23.288;2022-07-15T10:27:19;4.80;;;2.70;;
13040;SDS011;6587;42.728;23.288;2022-07-15T10:29:56;3.10;;;2.47;;
13040;SDS011;6587;42.728;23.288;2022-07-15T10:32:30;4.70;;;2.65;;
13040;SDS011;6587;42.728;23.288;2022-07-15T10:35:39;5.80;;;2.78;;
13040;SDS011;6587;42.728;23.288;2022-07-15T10:38:21;3.53;;;2.63;;
13040;SDS011;6587;42.728;23.288;2022-07-15T10:41:04;5.57;;;2.30;;
13040;SDS011;6587;42.728;23.288;2022-07-15T10:43:46;5.20;;;2.20;;
13040;SDS011;6587;42.728;23.288;2022-07-15T10:46:19;5.25;;;2.47;;
13040;SDS011;6587;42.728;23.288;2022-07-15T10:48:52;2.30;;;2.10;;
13040;SDS011;6587;42.728;23.288;2022-07-15T10:51:43;3.25;;;2.33;;
13040;SDS011;6587;42.728;23.288;2022-07-15T10:54:37;3.53;;;2.17;;
13040;SDS011;6587;42.728;23.288;2022-07-15T10:57:05;2.67;;;2.10;;
13040;SDS011;6587;42.728;23.288;2022-07-15T10:59:34;2.97;;;2.38;;
13040;SDS011;6587;42.728;23.288;2022-07-15T11:02:16;2.35;;;1.90;;
13040;SDS011;6587;42.728;23.288;2022-07-15T11:04:47;4.90;;;2.08;;
13040;SDS011;6587;42.728;23.288;2022-07-15T11:07:28;3.42;;;2.25;;
13040;SDS011;6587;42.728;23.288;2022-07-15T11:12:55;3.00;;;2.08;;
13040;SDS011;6587;42.728;23.288;2022-07-15T11:15:31;9.18;;;6.85;;
13040;SDS011;6587;42.728;23.288;2022-07-15T11:17:59;3.58;;;2.63;;
13040;SDS011;6587;42.728;23.288;2022-07-15T11:20:32;2.40;;;2.20;;
13040;SDS011;6587;42.728;23.288;2022-07-15T11:23:02;3.78;;;2.30;;
13040;SDS011;6587;42.728;23.288;2022-07-15T11:25:32;5.80;;;3.17;;
13040;SDS011;6587;42.728;23.288;2022-07-15T11:28:06;2.65;;;2.38;;
13040;SDS011;6587;42.728;23.288;2022-07-15T11:30:37;4.65;;;2.60;;
13040;SDS011;6587;42.728;23.288;2022-07-15T11:33:06;4.20;;;2.60;;
13040;SDS011;6587;42.728;23.288;2022-07-15T11:35:45;5.88;;;2.28;;
13040;SDS011;6587;42.728;23.288;2022-07-15T11:38:15;3.22;;;2.92;;
13040;SDS011;6587;42.728;23.288;2022-07-15T11:40:43;4.10;;;2.75;;
13040;SDS011;6587;42.728;23.288;2022-07-15T11:43:28;3.00;;;2.30;;
13040;SDS011;6587;42.728;23.288;2022-07-15T11:46:13;3.53;;;2.60;;
13040;SDS011;6587;42.728;23.288;2022-07-15T11:48:40;7.10;;;2.33;;
13040;SDS011;6587;42.728;23.288;2022-07-15T11:51:09;4.57;;;2.67;;
13040;SDS011;6587;42.728;23.288;2022-07-15T11:53:38;2.30;;;2.10;;
13040;SDS011;6587;42.728;23.288;2022-07-15T11:56:06;6.28;;;2.17;;
13040;SDS011;6587;42.728;23.288;2022-07-15T11:58:36;6.70;;;2.58;;
13040;SDS011;6587;42.728;23.288;2022-07-15T12:01:04;4.70;;;2.38;;
13040;SDS011;6587;42.728;23.288;2022-07-15T12:03:33;3.67;;;2.45;;
13040;SDS011;6587;42.728;23.288;2022-07-15T12:06:02;3.33;;;2.63;;
13040;SDS011;6587;42.728;23.288;2022-07-15T12:08:36;7.30;;;2.50;;
13040;SDS011;6587;42.728;23.288;2022-07-15T12:11:16;3.05;;;2.42;;
13040;SDS011;6587;42.728;23.288;2022-07-15T12:13:47;3.03;;;2.40;;
13040;SDS011;6587;42.728;23.288;2022-07-15T12:16:21;5.10;;;2.58;;
13040;SDS011;6587;42.728;23.288;2022-07-15T12:18:51;5.30;;;2.90;;
13040;SDS011;6587;42.728;23.288;2022-07-15T12:21:20;2.67;;;2.30;;
13040;SDS011;6587;42.728;23.288;2022-07-15T12:23:58;4.22;;;2.42;;
13040;SDS011;6587;42.728;23.288;2022-07-15T12:26:26;4.40;;;2.00;;
13040;SDS011;6587;42.728;23.288;2022-07-15T12:28:53;2.58;;;2.15;;
13040;SDS011;6587;42.728;23.288;2022-07-15T12:31:25;2.70;;;1.90;;
13040;SDS011;6587;42.728;23.288;2022-07-15T12:33:52;3.08;;;1.88;;
13040;SDS011;6587;42.728;23.288;2022-07-15T12:36:20;2.85;;;2.10;;
13040;SDS011;6587;42.728;23.288;2022-07-15T12:41:32;4.72;;;2.50;;
13040;SDS011;6587;42.728;23.288;2022-07-15T12:44:00;2.65;;;1.90;;
13040;SDS011;6587;42.728;23.288;2022-07-15T12:52:17;3.63;;;2.28;;
13040;SDS011;6587;42.728;23.288;2022-07-15T12:54:50;2.72;;;2.15;;
13040;SDS011;6587;42.728;23.288;2022-07-15T12:57:18;4.18;;;2.70;;
13040;SDS011;6587;42.728;23.288;2022-07-15T12:59:51;3.58;;;2.42;;
13040;SDS011;6587;42.728;23.288;2022-07-15T13:02:19;5.18;;;2.88;;
13040;SDS011;6587;42.728;23.288;2022-07-15T13:04:46;2.50;;;2.30;;
13040;SDS011;6587;42.728;23.288;2022-07-15T13:07:13;4.82;;;2.35;;
13040;SDS011;6587;42.728;23.288;2022-07-15T13:09:40;2.50;;;2.30;;
13040;SDS011;6587;42.728;23.288;2022-07-15T13:12:09;3.08;;;2.28;;
13040;SDS011;6587;42.728;23.288;2022-07-15T13:14:36;4.00;;;2.60;;
13040;SDS011;6587;42.728;23.288;2022-07-15T13:17:04;4.78;;;2.65;;
13040;SDS011;6587;42.728;23.288;2022-07-15T13:19:31;3.38;;;2.10;;
13040;SDS011;6587;42.728;23.288;2022-07-15T13:21:59;2.78;;;2.58;;
13040;SDS011;6587;42.728;23.288;2022-07-15T13:24:26;3.10;;;2.10;;
13040;SDS011;6587;42.728;23.288;2022-07-15T13:26:53;3.42;;;2.05;;
13040;SDS011;6587;42.728;23.288;2022-07-15T13:29:21;4.95;;;3.13;;
13040;SDS011;6587;42.728;23.288;2022-07-15T13:31:48;2.75;;;2.13;;
13040;SDS011;6587;42.728;23.288;2022-07-15T13:34:15;3.25;;;2.40;;
13040;SDS011;6587;42.728;23.288;2022-07-15T13:36:42;4.68;;;2.22;;
13040;SDS011;6587;42.728;23.288;2022-07-15T13:39:09;2.03;;;1.92;;
13040;SDS011;6587;42.728;23.288;2022-07-15T13:41:36;2.28;;;2.08;;
13040;SDS011;6587;42.728;23.288;2022-07-15T13:44:03;2.15;;;1.95;;
13040;SDS011;6587;42.728;23.288;2022-07-15T13:46:31;2.30;;;2.10;;
13040;SDS011;6587;42.728;23.288;2022-07-15T13:48:58;3.38;;;2.00;;
13040;SDS011;6587;42.728;23.288;2022-07-15T13:51:25;3.20;;;2.10;;
13040;SDS011;6587;42.728;23.288;2022-07-15T13:53:52;3.90;;;2.00;;
13040;SDS011;6587;42.728;23.288;2022-07-15T13:56:20;3.15;;;2.70;;
13040;SDS011;6587;42.728;23.288;2022-07-15T13:58:47;3.13;;;2.20;;
13040;SDS011;6587;42.728;23.288;2022-07-15T14:01:15;3.00;;;2.00;;
13040;SDS011;6587;42.728;23.288;2022-07-15T14:03:44;4.25;;;2.20;;
13040;SDS011;6587;42.728;23.288;2022-07-15T14:06:11;4.28;;;2.13;;
13040;SDS011;6587;42.728;23.288;2022-07-15T14:08:38;4.18;;;2.60;;
13040;SDS011;6587;42.728;23.288;2022-07-15T14:11:04;6.00;;;2.55;;
13040;SDS011;6587;42.728;23.288;2022-07-15T14:13:31;4.13;;;2.20;;
13040;SDS011;6587;42.728;23.288;2022-07-15T14:15:58;2.45;;;2.22;;
13040;SDS011;6587;42.728;23.288;2022-07-15T14:18:25;5.50;;;2.50;;
13040;SDS011;6587;42.728;23.288;2022-07-15T14:21:13;3.05;;;2.47;;
13040;SDS011;6587;42.728;23.288;2022-07-15T14:23:41;2.60;;;2.40;;
13040;SDS011;6587;42.728;23.288;2022-07-15T14:26:09;6.28;;;2.35;;
13040;SDS011;6587;42.728;23.288;2022-07-15T14:28:36;5.30;;;2.17;;
13040;SDS011;6587;42.728;23.288;2022-07-15T14:31:04;6.97;;;2.35;;
13040;SDS011;6587;42.728;23.288;2022-07-15T14:33:32;4.97;;;2.13;;
13040;SDS011;6587;42.728;23.288;2022-07-15T14:35:59;3.58;;;2.20;;
13040;SDS011;6587;42.728;23.288;2022-07-15T14:38:27;4.75;;;2.33;;
13040;SDS011;6587;42.728;23.288;2022-07-15T14:40:54;2.72;;;2.05;;
13040;SDS011;6587;42.728;23.288;2022-07-15T14:43:21;3.28;;;2.08;;
13040;SDS011;6587;42.728;23.288;2022-07-15T14:45:48;4.35;;;3.28;;
13040;SDS011;6587;42.728;23.288;2022-07-15T14:48:15;4.15;;;2.55;;
13040;SDS011;6587;42.728;23.288;2022-07-15T14:50:42;6.97;;;3.33;;
13040;SDS011;6587;42.728;23.288;2022-07-15T14:53:09;3.25;;;2.30;;
13040;SDS011;6587;42.728;23.288;2022-07-15T14:55:37;3.10;;;2.53;;
13040;SDS011;6587;42.728;23.288;2022-07-15T14:58:04;2.45;;;2.08;;
13040;SDS011;6587;42.728;23.288;2022-07-15T15:00:31;2.53;;;2.33;;
13040;SDS011;6587;42.728;23.288;2022-07-15T15:02:58;2.80;;;2.20;;
13040;SDS011;6587;42.728;23.288;2022-07-15T15:05:25;4.80;;;2.40;;
13040;SDS011;6587;42.728;23.288;2022-07-15T15:07:52;4.78;;;3.40;;
13040;SDS011;6587;42.728;23.288;2022-07-15T15:10:19;4.22;;;2.90;;
13040;SDS011;6587;42.728;23.288;2022-07-15T15:12:47;3.35;;;2.60;;
13040;SDS011;6587;42.728;23.288;2022-07-15T15:15:14;3.38;;;2.47;;
13040;SDS011;6587;42.728;23.288;2022-07-15T15:17:41;3.88;;;2.60;;
13040;SDS011;6587;42.728;23.288;2022-07-15T15:20:09;2.50;;;2.15;;